sensor_id;sensor_type;location;lat;lon;timestamp;P1;durP1;ratioP1;P2;durP2;ratioP2
33108;SDS011;19481;51.118;6.940;2023-05-10T00:03:39;5.20;;;4.03;;
33108;SDS011;19481;51.118;6.940;2023-05-10T00:08:40;5.68;;;4.10;;
33108;SDS011;19481;51.118;6.940;2023-05-10T00:13:42;5.63;;;4.25;;
33108;SDS011;19481;51.118;6.940;2023-05-10T00:18:45;7.13;;;4.65;;
33108;SDS011;19481;51.118;6.940;2023-05-10T00:23:47;6.35;;;4.40;;
33108;SDS011;19481;51.118;6.940;2023-05-10T00:28:48;8.13;;;4.93;;
33108;SDS011;19481;51.118;6.940;2023-05-10T00:33:51;5.75;;;4.15;;
33108;SDS011;19481;51.118;6.940;2023-05-10T00:38:53;7.43;;;5.05;;
33108;SDS011;19481;51.118;6.940;2023-05-10T00:43:54;7.07;;;4.97;;
33108;SDS011;19481;51.118;6.940;2023-05-10T00:48:58;7.15;;;4.53;;
33108;SDS011;19481;51.118;6.940;2023-05-10T00:54:00;9.80;;;5.10;;
33108;SDS011;19481;51.118;6.940;2023-05-10T00:59:01;7.30;;;5.35;;
33108;SDS011;19481;51.118;6.940;2023-05-10T01:04:04;8.68;;;4.82;;
33108;SDS011;19481;51.118;6.940;2023-05-10T01:09:06;7.68;;;4.85;;
33108;SDS011;19481;51.118;6.940;2023-05-10T01:14:08;7.22;;;5.00;;
33108;SDS011;19481;51.118;6.940;2023-05-10T01:19:12;8.55;;;4.68;;
33108;SDS011;19481;51.118;6.940;2023-05-10T01:29:59;6.65;;;4.85;;
33108;SDS011;19481;51.118;6.940;2023-05-10T01:35:10;6.57;;;3.88;;
33108;SDS011;19481;51.118;6.940;2023-05-10T01:40:22;5.22;;;3.90;;
33108;SDS011;19481;51.118;6.940;2023-05-10T01:45:32;6.25;;;3.92;;
33108;SDS011;19481;51.118;6.940;2023-05-10T01:50:41;5.38;;;3.63;;
33108;SDS011;19481;51.118;6.940;2023-05-10T01:55:45;7.63;;;3.15;;
33108;SDS011;19481;51.118;6.940;2023-05-10T02:00:49;6.50;;;3.55;;
33108;SDS011;19481;51.118;6.940;2023-05-10T02:05:54;5.88;;;3.05;;
33108;SDS011;19481;51.118;6.940;2023-05-10T02:10:57;5.60;;;2.83;;
33108;SDS011;19481;51.118;6.940;2023-05-10T02:16:00;5.50;;;3.63;;
33108;SDS011;19481;51.118;6.940;2023-05-10T02:21:05;6.63;;;3.90;;
33108;SDS011;19481;51.118;6.940;2023-05-10T02:26:07;5.03;;;3.33;;
33108;SDS011;19481;51.118;6.940;2023-05-10T02:31:09;12.52;;;3.38;;
33108;SDS011;19481;51.118;6.940;2023-05-10T02:36:13;3.40;;;3.10;;
33108;SDS011;19481;51.118;6.940;2023-05-10T02:41:16;4.40;;;2.95;;
33108;SDS011;19481;51.118;6.940;2023-05-10T02:46:19;8.93;;;3.55;;
33108;SDS011;19481;51.118;6.940;2023-05-10T02:51:22;6.10;;;3.63;;
33108;SDS011;19481;51.118;6.940;2023-05-10T02:56:29;5.37;;;3.60;;
33108;SDS011;19481;51.118;6.940;2023-05-10T03:01:34;5.32;;;3.42;;
33108;SDS011;19481;51.118;6.940;2023-05-10T03:06:37;5.47;;;3.80;;
33108;SDS011;19481;51.118;6.940;2023-05-10T03:11:41;6.20;;;3.83;;
33108;SDS011;19481;51.118;6.940;2023-05-10T03:16:56;5.65;;;3.88;;
33108;SDS011;19481;51.118;6.940;2023-05-10T03:22:04;4.82;;;3.20;;
33108;SDS011;19481;51.118;6.940;2023-05-10T03:27:11;4.68;;;3.40;;
33108;SDS011;19481;51.118;6.940;2023-05-10T03:32:15;4.68;;;3.10;;
33108;SDS011;19481;51.118;6.940;2023-05-10T03:37:18;3.88;;;3.08;;
33108;SDS011;19481;51.118;6.940;2023-05-10T03:42:19;4.45;;;3.45;;
33108;SDS011;19481;51.118;6.940;2023-05-10T03:47:21;3.78;;;2.72;;
33108;SDS011;19481;51.118;6.940;2023-05-10T03:52:24;3.42;;;2.70;;
33108;SDS011;19481;51.118;6.940;2023-05-10T03:57:26;4.32;;;2.78;;
33108;SDS011;19481;51.118;6.940;2023-05-10T04:02:27;6.68;;;3.20;;
33108;SDS011;19481;51.118;6.940;2023-05-10T04:07:31;3.95;;;3.10;;
33108;SDS011;19481;51.118;6.940;2023-05-10T04:12:32;3.72;;;3.10;;
33108;SDS011;19481;51.118;6.940;2023-05-10T04:17:34;5.25;;;2.95;;
33108;SDS011;19481;51.118;6.940;2023-05-10T04:22:37;5.60;;;3.47;;
33108;SDS011;19481;51.118;6.940;2023-05-10T04:27:38;4.50;;;3.67;;
33108;SDS011;19481;51.118;6.940;2023-05-10T04:32:40;6.97;;;3.60;;
33108;SDS011;19481;51.118;6.940;2023-05-10T04:37:43;8.20;;;4.45;;
33108;SDS011;19481;51.118;6.940;2023-05-10T04:42:44;9.00;;;4.57;;
33108;SDS011;19481;51.118;6.940;2023-05-10T04:47:46;12.75;;;5.15;;
33108;SDS011;19481;51.118;6.940;2023-05-10T04:52:49;7.82;;;4.95;;
33108;SDS011;19481;51.118;6.940;2023-05-10T04:57:51;8.52;;;5.00;;
33108;SDS011;19481;51.118;6.940;2023-05-10T05:02:52;11.35;;;5.68;;
33108;SDS011;19481;51.118;6.940;2023-05-10T05:07:55;10.02;;;5.60;;
33108;SDS011;19481;51.118;6.940;2023-05-10T05:12:57;14.27;;;6.32;;
33108;SDS011;19481;51.118;6.940;2023-05-10T05:17:58;11.57;;;6.38;;
33108;SDS011;19481;51.118;6.940;2023-05-10T05:23:01;9.40;;;5.32;;
33108;SDS011;19481;51.118;6.940;2023-05-10T05:28:03;10.48;;;5.97;;
33108;SDS011;19481;51.118;6.940;2023-05-10T05:33:05;12.32;;;6.15;;
33108;SDS011;19481;51.118;6.940;2023-05-10T05:38:08;9.60;;;5.43;;
33108;SDS011;19481;51.118;6.940;2023-05-10T05:43:09;6.55;;;4.88;;
33108;SDS011;19481;51.118;6.940;2023-05-10T05:48:11;8.02;;;4.95;;
33108;SDS011;19481;51.118;6.940;2023-05-10T05:53:14;7.68;;;4.90;;
33108;SDS011;19481;51.118;6.940;2023-05-10T05:58:16;11.10;;;4.88;;
33108;SDS011;19481;51.118;6.940;2023-05-10T06:03:18;8.48;;;5.00;;
33108;SDS011;19481;51.118;6.940;2023-05-10T06:08:21;9.65;;;4.80;;
33108;SDS011;19481;51.118;6.940;2023-05-10T06:13:22;11.25;;;5.63;;
33108;SDS011;19481;51.118;6.940;2023-05-10T06:18:24;10.18;;;4.78;;
33108;SDS011;19481;51.118;6.940;2023-05-10T06:23:27;13.23;;;5.45;;
33108;SDS011;19481;51.118;6.940;2023-05-10T06:28:29;12.13;;;5.43;;
33108;SDS011;19481;51.118;6.940;2023-05-10T06:33:32;10.02;;;5.53;;
33108;SDS011;19481;51.118;6.940;2023-05-10T06:38:35;10.32;;;5.20;;
33108;SDS011;19481;51.118;6.940;2023-05-10T06:43:37;14.25;;;5.75;;
33108;SDS011;19481;51.118;6.940;2023-05-10T06:48:41;10.93;;;5.90;;
33108;SDS011;19481;51.118;6.940;2023-05-10T06:53:44;13.15;;;5.85;;
33108;SDS011;19481;51.118;6.940;2023-05-10T06:58:45;12.93;;;6.10;;
33108;SDS011;19481;51.118;6.940;2023-05-10T07:03:47;14.00;;;6.53;;
33108;SDS011;19481;51.118;6.940;2023-05-10T07:08:50;11.23;;;5.93;;
33108;SDS011;19481;51.118;6.940;2023-05-10T07:13:51;10.77;;;6.00;;
33108;SDS011;19481;51.118;6.940;2023-05-10T07:18:53;12.15;;;5.90;;
33108;SDS011;19481;51.118;6.940;2023-05-10T07:23:56;11.88;;;5.88;;
33108;SDS011;19481;51.118;6.940;2023-05-10T07:28:58;12.90;;;5.43;;
33108;SDS011;19481;51.118;6.940;2023-05-10T07:33:59;13.00;;;5.97;;
33108;SDS011;19481;51.118;6.940;2023-05-10T07:39:02;10.50;;;5.10;;
33108;SDS011;19481;51.118;6.940;2023-05-10T07:44:05;15.27;;;5.85;;
33108;SDS011;19481;51.118;6.940;2023-05-10T07:49:07;10.70;;;5.90;;
33108;SDS011;19481;51.118;6.940;2023-05-10T07:54:10;12.88;;;5.93;;
33108;SDS011;19481;51.118;6.940;2023-05-10T07:59:14;9.45;;;4.85;;
33108;SDS011;19481;51.118;6.940;2023-05-10T08:04:16;8.85;;;5.38;;
33108;SDS011;19481;51.118;6.940;2023-05-10T08:09:19;12.43;;;5.90;;
33108;SDS011;19481;51.118;6.940;2023-05-10T08:14:23;10.02;;;5.80;;
33108;SDS011;19481;51.118;6.940;2023-05-10T08:19:25;11.98;;;5.45;;
33108;SDS011;19481;51.118;6.940;2023-05-10T08:24:28;8.40;;;5.20;;
33108;SDS011;19481;51.118;6.940;2023-05-10T08:29:29;9.90;;;5.18;;
33108;SDS011;19481;51.118;6.940;2023-05-10T08:34:31;9.40;;;5.00;;
33108;SDS011;19481;51.118;6.940;2023-05-10T08:39:35;16.77;;;8.50;;
33108;SDS011;19481;51.118;6.940;2023-05-10T08:44:37;22.80;;;9.77;;
33108;SDS011;19481;51.118;6.940;2023-05-10T08:49:38;24.42;;;10.50;;
33108;SDS011;19481;51.118;6.940;2023-05-10T08:54:42;21.77;;;10.23;;
33108;SDS011;19481;51.118;6.940;2023-05-10T08:59:44;27.23;;;9.98;;
33108;SDS011;19481;51.118;6.940;2023-05-10T09:04:46;28.52;;;11.07;;
33108;SDS011;19481;51.118;6.940;2023-05-10T09:09:50;21.65;;;9.75;;
33108;SDS011;19481;51.118;6.940;2023-05-10T09:14:52;25.38;;;10.23;;
33108;SDS011;19481;51.118;6.940;2023-05-10T09:19:58;22.20;;;8.73;;
33108;SDS011;19481;51.118;6.940;2023-05-10T09:25:06;20.23;;;8.88;;
33108;SDS011;19481;51.118;6.940;2023-05-10T09:30:09;26.13;;;9.43;;
33108;SDS011;19481;51.118;6.940;2023-05-10T09:35:12;22.60;;;9.43;;
33108;SDS011;19481;51.118;6.940;2023-05-10T09:40:16;21.05;;;10.05;;
33108;SDS011;19481;51.118;6.940;2023-05-10T09:45:20;26.58;;;10.45;;
33108;SDS011;19481;51.118;6.940;2023-05-10T09:50:22;20.48;;;8.80;;
33108;SDS011;19481;51.118;6.940;2023-05-10T09:55:26;20.73;;;9.55;;
33108;SDS011;19481;51.118;6.940;2023-05-10T10:00:40;21.10;;;10.05;;
33108;SDS011;19481;51.118;6.940;2023-05-10T10:05:43;19.88;;;9.98;;
33108;SDS011;19481;51.118;6.940;2023-05-10T10:10:46;16.92;;;8.60;;
33108;SDS011;19481;51.118;6.940;2023-05-10T10:15:48;16.30;;;8.80;;
33108;SDS011;19481;51.118;6.940;2023-05-10T10:20:51;15.27;;;7.32;;
33108;SDS011;19481;51.118;6.940;2023-05-10T10:25:55;20.00;;;8.50;;
33108;SDS011;19481;51.118;6.940;2023-05-10T10:30:56;17.88;;;8.10;;
33108;SDS011;19481;51.118;6.940;2023-05-10T10:36:03;18.17;;;8.05;;
33108;SDS011;19481;51.118;6.940;2023-05-10T10:41:11;15.20;;;7.90;;
33108;SDS011;19481;51.118;6.940;2023-05-10T10:46:28;14.68;;;8.32;;
33108;SDS011;19481;51.118;6.940;2023-05-10T10:51:30;15.77;;;7.78;;
33108;SDS011;19481;51.118;6.940;2023-05-10T10:56:33;16.08;;;7.72;;
33108;SDS011;19481;51.118;6.940;2023-05-10T11:01:35;15.45;;;7.50;;
33108;SDS011;19481;51.118;6.940;2023-05-10T11:06:36;15.05;;;7.10;;
33108;SDS011;19481;51.118;6.940;2023-05-10T11:11:50;12.75;;;6.60;;
33108;SDS011;19481;51.118;6.940;2023-05-10T11:16:54;14.60;;;6.47;;
33108;SDS011;19481;51.118;6.940;2023-05-10T11:22:11;11.00;;;6.28;;
33108;SDS011;19481;51.118;6.940;2023-05-10T11:27:15;14.00;;;6.90;;
33108;SDS011;19481;51.118;6.940;2023-05-10T11:32:17;12.52;;;6.60;;
33108;SDS011;19481;51.118;6.940;2023-05-10T11:37:20;9.20;;;5.60;;
33108;SDS011;19481;51.118;6.940;2023-05-10T11:42:23;10.35;;;6.10;;
33108;SDS011;19481;51.118;6.940;2023-05-10T11:47:25;11.13;;;5.95;;
33108;SDS011;19481;51.118;6.940;2023-05-10T11:52:26;9.93;;;5.30;;
33108;SDS011;19481;51.118;6.940;2023-05-10T11:57:30;9.73;;;5.43;;
33108;SDS011;19481;51.118;6.940;2023-05-10T12:02:32;11.13;;;5.53;;
33108;SDS011;19481;51.118;6.940;2023-05-10T12:07:34;10.48;;;4.75;;
33108;SDS011;19481;51.118;6.940;2023-05-10T12:12:40;8.90;;;5.13;;
33108;SDS011;19481;51.118;6.940;2023-05-10T12:17:43;10.93;;;5.13;;
33108;SDS011;19481;51.118;6.940;2023-05-10T12:22:46;9.43;;;4.85;;
33108;SDS011;19481;51.118;6.940;2023-05-10T12:27:50;6.88;;;5.13;;
33108;SDS011;19481;51.118;6.940;2023-05-10T12:32:53;7.30;;;5.30;;
33108;SDS011;19481;51.118;6.940;2023-05-10T12:37:55;9.30;;;5.05;;
33108;SDS011;19481;51.118;6.940;2023-05-10T12:42:58;7.47;;;5.07;;
33108;SDS011;19481;51.118;6.940;2023-05-10T12:47:59;8.88;;;4.85;;
33108;SDS011;19481;51.118;6.940;2023-05-10T12:53:01;5.45;;;3.63;;
33108;SDS011;19481;51.118;6.940;2023-05-10T12:58:04;8.98;;;5.22;;
33108;SDS011;19481;51.118;6.940;2023-05-10T13:03:05;6.32;;;3.90;;
33108;SDS011;19481;51.118;6.940;2023-05-10T13:08:07;8.52;;;5.28;;
33108;SDS011;19481;51.118;6.940;2023-05-10T13:13:10;11.98;;;5.85;;
33108;SDS011;19481;51.118;6.940;2023-05-10T13:18:11;7.35;;;4.95;;
33108;SDS011;19481;51.118;6.940;2023-05-10T13:23:13;16.20;;;5.93;;
33108;SDS011;19481;51.118;6.940;2023-05-10T13:28:16;9.25;;;5.63;;
33108;SDS011;19481;51.118;6.940;2023-05-10T13:33:17;11.43;;;6.63;;
33108;SDS011;19481;51.118;6.940;2023-05-10T13:38:19;13.00;;;6.05;;
33108;SDS011;19481;51.118;6.940;2023-05-10T13:43:23;11.32;;;6.57;;
33108;SDS011;19481;51.118;6.940;2023-05-10T13:48:25;11.52;;;6.85;;
33108;SDS011;19481;51.118;6.940;2023-05-10T13:53:28;15.40;;;7.53;;
33108;SDS011;19481;51.118;6.940;2023-05-10T13:58:31;11.07;;;7.18;;
33108;SDS011;19481;51.118;6.940;2023-05-10T14:03:32;11.30;;;6.78;;
33108;SDS011;19481;51.118;6.940;2023-05-10T14:08:34;14.40;;;7.28;;
33108;SDS011;19481;51.118;6.940;2023-05-10T14:13:37;12.20;;;6.55;;
33108;SDS011;19481;51.118;6.940;2023-05-10T14:18:39;10.13;;;5.97;;
33108;SDS011;19481;51.118;6.940;2023-05-10T14:23:41;9.85;;;6.05;;
33108;SDS011;19481;51.118;6.940;2023-05-10T14:28:44;8.98;;;5.53;;
33108;SDS011;19481;51.118;6.940;2023-05-10T14:33:45;9.10;;;5.80;;
33108;SDS011;19481;51.118;6.940;2023-05-10T14:38:47;9.68;;;5.55;;
33108;SDS011;19481;51.118;6.940;2023-05-10T14:43:50;7.20;;;3.83;;
33108;SDS011;19481;51.118;6.940;2023-05-10T14:48:52;6.10;;;3.17;;
33108;SDS011;19481;51.118;6.940;2023-05-10T14:53:53;5.13;;;3.25;;
33108;SDS011;19481;51.118;6.940;2023-05-10T14:58:56;2.63;;;2.42;;
33108;SDS011;19481;51.118;6.940;2023-05-10T15:03:59;3.55;;;2.65;;
33108;SDS011;19481;51.118;6.940;2023-05-10T15:09:01;4.38;;;2.53;;
33108;SDS011;19481;51.118;6.940;2023-05-10T15:14:05;4.68;;;2.80;;
33108;SDS011;19481;51.118;6.940;2023-05-10T15:19:06;4.18;;;2.65;;
33108;SDS011;19481;51.118;6.940;2023-05-10T15:24:08;2.97;;;2.60;;
33108;SDS011;19481;51.118;6.940;2023-05-10T15:29:11;3.65;;;2.70;;
33108;SDS011;19481;51.118;6.940;2023-05-10T15:34:19;4.28;;;3.00;;
33108;SDS011;19481;51.118;6.940;2023-05-10T15:39:21;4.22;;;2.60;;
33108;SDS011;19481;51.118;6.940;2023-05-10T15:44:24;4.07;;;2.50;;
33108;SDS011;19481;51.118;6.940;2023-05-10T15:49:25;3.65;;;2.10;;
33108;SDS011;19481;51.118;6.940;2023-05-10T15:54:27;3.70;;;2.15;;
33108;SDS011;19481;51.118;6.940;2023-05-10T15:59:31;4.60;;;2.88;;
33108;SDS011;19481;51.118;6.940;2023-05-10T16:04:34;6.60;;;2.92;;
33108;SDS011;19481;51.118;6.940;2023-05-10T16:09:36;3.58;;;2.63;;
33108;SDS011;19481;51.118;6.940;2023-05-10T16:14:39;7.47;;;2.95;;
33108;SDS011;19481;51.118;6.940;2023-05-10T16:19:41;4.63;;;2.90;;
33108;SDS011;19481;51.118;6.940;2023-05-10T16:24:43;3.72;;;2.65;;
33108;SDS011;19481;51.118;6.940;2023-05-10T16:29:46;4.38;;;2.63;;
33108;SDS011;19481;51.118;6.940;2023-05-10T16:34:48;3.50;;;2.50;;
33108;SDS011;19481;51.118;6.940;2023-05-10T16:39:50;2.25;;;2.00;;
33108;SDS011;19481;51.118;6.940;2023-05-10T16:44:53;4.07;;;2.10;;
33108;SDS011;19481;51.118;6.940;2023-05-10T16:49:55;2.03;;;1.85;;
33108;SDS011;19481;51.118;6.940;2023-05-10T16:54:57;1.65;;;1.55;;
33108;SDS011;19481;51.118;6.940;2023-05-10T17:00:00;2.53;;;1.67;;
33108;SDS011;19481;51.118;6.940;2023-05-10T17:05:02;3.55;;;2.00;;
33108;SDS011;19481;51.118;6.940;2023-05-10T17:10:05;3.35;;;1.88;;
33108;SDS011;19481;51.118;6.940;2023-05-10T17:15:09;8.32;;;2.53;;
33108;SDS011;19481;51.118;6.940;2023-05-10T17:20:11;5.38;;;2.30;;
33108;SDS011;19481;51.118;6.940;2023-05-10T17:25:13;3.58;;;2.10;;
33108;SDS011;19481;51.118;6.940;2023-05-10T17:30:16;2.90;;;1.90;;
33108;SDS011;19481;51.118;6.940;2023-05-10T17:35:24;4.55;;;2.63;;
33108;SDS011;19481;51.118;6.940;2023-05-10T17:40:26;6.32;;;1.80;;
33108;SDS011;19481;51.118;6.940;2023-05-10T17:45:29;2.22;;;1.90;;
33108;SDS011;19481;51.118;6.940;2023-05-10T17:50:30;2.42;;;1.73;;
33108;SDS011;19481;51.118;6.940;2023-05-10T17:55:32;2.72;;;1.50;;
33108;SDS011;19481;51.118;6.940;2023-05-10T18:00:35;1.42;;;1.20;;
33108;SDS011;19481;51.118;6.940;2023-05-10T18:05:36;2.17;;;1.10;;
33108;SDS011;19481;51.118;6.940;2023-05-10T18:10:39;1.27;;;1.17;;
33108;SDS011;19481;51.118;6.940;2023-05-10T18:15:42;1.98;;;1.70;;
33108;SDS011;19481;51.118;6.940;2023-05-10T18:20:44;5.68;;;1.48;;
33108;SDS011;19481;51.118;6.940;2023-05-10T18:25:46;2.35;;;1.25;;
33108;SDS011;19481;51.118;6.940;2023-05-10T18:30:49;1.15;;;1.05;;
33108;SDS011;19481;51.118;6.940;2023-05-10T18:35:51;3.95;;;1.40;;
33108;SDS011;19481;51.118;6.940;2023-05-10T18:40:52;4.05;;;1.60;;
33108;SDS011;19481;51.118;6.940;2023-05-10T18:45:55;2.20;;;1.40;;
33108;SDS011;19481;51.118;6.940;2023-05-10T18:50:57;4.22;;;1.63;;
33108;SDS011;19481;51.118;6.940;2023-05-10T18:55:58;4.30;;;2.30;;
33108;SDS011;19481;51.118;6.940;2023-05-10T19:01:01;2.28;;;1.90;;
33108;SDS011;19481;51.118;6.940;2023-05-10T19:06:03;3.33;;;2.20;;
33108;SDS011;19481;51.118;6.940;2023-05-10T19:11:05;6.55;;;2.20;;
33108;SDS011;19481;51.118;6.940;2023-05-10T19:16:10;3.40;;;2.28;;
33108;SDS011;19481;51.118;6.940;2023-05-10T19:26:15;2.40;;;2.20;;
33108;SDS011;19481;51.118;6.940;2023-05-10T19:31:19;4.40;;;2.90;;
33108;SDS011;19481;51.118;6.940;2023-05-10T19:36:21;4.18;;;2.78;;
33108;SDS011;19481;51.118;6.940;2023-05-10T19:41:23;3.70;;;2.88;;
33108;SDS011;19481;51.118;6.940;2023-05-10T19:46:26;6.78;;;2.83;;
33108;SDS011;19481;51.118;6.940;2023-05-10T19:51:27;3.35;;;2.70;;
33108;SDS011;19481;51.118;6.940;2023-05-10T19:56:29;5.60;;;3.22;;
33108;SDS011;19481;51.118;6.940;2023-05-10T20:01:32;6.32;;;3.03;;
33108;SDS011;19481;51.118;6.940;2023-05-10T20:06:33;6.80;;;3.78;;
33108;SDS011;19481;51.118;6.940;2023-05-10T20:11:35;5.22;;;3.40;;
33108;SDS011;19481;51.118;6.940;2023-05-10T20:16:38;5.05;;;3.53;;
33108;SDS011;19481;51.118;6.940;2023-05-10T20:21:40;6.70;;;3.53;;
33108;SDS011;19481;51.118;6.940;2023-05-10T20:26:42;3.75;;;3.10;;
33108;SDS011;19481;51.118;6.940;2023-05-10T20:31:45;8.50;;;3.67;;
33108;SDS011;19481;51.118;6.940;2023-05-10T20:36:46;7.05;;;3.90;;
33108;SDS011;19481;51.118;6.940;2023-05-10T20:41:48;6.03;;;4.20;;
33108;SDS011;19481;51.118;6.940;2023-05-10T20:46:51;5.78;;;4.15;;
33108;SDS011;19481;51.118;6.940;2023-05-10T20:51:53;6.00;;;4.22;;
33108;SDS011;19481;51.118;6.940;2023-05-10T20:56:54;6.07;;;3.75;;
33108;SDS011;19481;51.118;6.940;2023-05-10T21:01:57;7.05;;;3.42;;
33108;SDS011;19481;51.118;6.940;2023-05-10T21:06:59;5.28;;;3.47;;
33108;SDS011;19481;51.118;6.940;2023-05-10T21:12:01;6.45;;;3.65;;
33108;SDS011;19481;51.118;6.940;2023-05-10T21:17:04;5.53;;;3.50;;
33108;SDS011;19481;51.118;6.940;2023-05-10T21:22:06;4.38;;;3.83;;
33108;SDS011;19481;51.118;6.940;2023-05-10T21:27:07;5.97;;;4.00;;
33108;SDS011;19481;51.118;6.940;2023-05-10T21:32:10;5.43;;;3.60;;
33108;SDS011;19481;51.118;6.940;2023-05-10T21:37:14;7.18;;;3.30;;
33108;SDS011;19481;51.118;6.940;2023-05-10T21:42:15;6.72;;;3.60;;
33108;SDS011;19481;51.118;6.940;2023-05-10T21:47:18;4.88;;;3.40;;
33108;SDS011;19481;51.118;6.940;2023-05-10T21:52:20;5.72;;;4.03;;
33108;SDS011;19481;51.118;6.940;2023-05-10T21:57:21;4.95;;;3.80;;
33108;SDS011;19481;51.118;6.940;2023-05-10T22:02:24;5.18;;;3.50;;
33108;SDS011;19481;51.118;6.940;2023-05-10T22:07:29;5.05;;;3.55;;
33108;SDS011;19481;51.118;6.940;2023-05-10T22:12:30;5.97;;;3.97;;
33108;SDS011;19481;51.118;6.940;2023-05-10T22:17:33;6.93;;;4.25;;
33108;SDS011;19481;51.118;6.940;2023-05-10T22:22:35;8.32;;;5.13;;
33108;SDS011;19481;51.118;6.940;2023-05-10T22:27:37;7.07;;;4.53;;
33108;SDS011;19481;51.118;6.940;2023-05-10T22:32:39;6.10;;;4.57;;
33108;SDS011;19481;51.118;6.940;2023-05-10T22:37:41;5.70;;;4.63;;
33108;SDS011;19481;51.118;6.940;2023-05-10T22:42:43;9.00;;;5.10;;
33108;SDS011;19481;51.118;6.940;2023-05-10T22:47:46;13.80;;;4.93;;
33108;SDS011;19481;51.118;6.940;2023-05-10T22:52:48;7.50;;;4.95;;
33108;SDS011;19481;51.118;6.940;2023-05-10T22:57:50;8.48;;;4.75;;
33108;SDS011;19481;51.118;6.940;2023-05-10T23:02:53;7.40;;;5.00;;
33108;SDS011;19481;51.118;6.940;2023-05-10T23:07:55;7.50;;;4.85;;
33108;SDS011;19481;51.118;6.940;2023-05-10T23:12:56;7.82;;;5.53;;
33108;SDS011;19481;51.118;6.940;2023-05-10T23:17:59;7.95;;;5.10;;
33108;SDS011;19481;51.118;6.940;2023-05-10T23:23:01;13.32;;;5.95;;
33108;SDS011;19481;51.118;6.940;2023-05-10T23:28:03;8.82;;;5.47;;
33108;SDS011;19481;51.118;6.940;2023-05-10T23:33:06;10.40;;;5.50;;
33108;SDS011;19481;51.118;6.940;2023-05-10T23:38:08;11.05;;;5.70;;
33108;SDS011;19481;51.118;6.940;2023-05-10T23:43:10;12.60;;;6.20;;
33108;SDS011;19481;51.118;6.940;2023-05-10T23:48:14;8.95;;;6.05;;
33108;SDS011;19481;51.118;6.940;2023-05-10T23:53:16;8.35;;;5.72;;
33108;SDS011;19481;51.118;6.940;2023-05-10T23:58:18;10.50;;;5.93;;
